Time;durP1;ratioP1;P1;durP2;ratioP2;P2;SDS_P1;SDS_P2;PMS_P1;PMS_P2;Temp;Humidity;BMP_temperature;BMP_pressure;BME280_temperature;BME280_humidity;BME280_pressure;Samples;Min_cycle;Max_cycle;Signal;HPM_P1;HPM_P2
2022/12/02 00:02:21;;;;;;;25.92;17.60;;;;;;;5.57;73.20;96976.34;5072987;28;20044;-77
2022/12/02 00:04:54;;;;;;;29.35;18.45;;;;;;;5.53;73.36;96974.97;5073099;28;20502;-76
2022/12/02 00:07:22;;;;;;;27.67;17.70;;;;;;;5.54;73.86;96978.38;5072371;28;20503;-76
2022/12/02 00:09:51;;;;;;;30.00;19.17;;;;;;;5.57;73.68;96978.09;5072698;28;20102;-77
2022/12/02 00:12:21;;;;;;;30.50;19.40;;;;;;;5.55;73.55;96974.81;5073070;28;20076;-76
2022/12/02 00:15:20;;;;;;;26.95;17.77;;;;;;;5.53;73.71;96971.56;5128356;22;20047;-80
2022/12/02 00:18:30;;;;;;;27.35;17.65;;;;;;;5.53;74.23;96974.13;5122119;28;20052;-80
2022/12/02 00:21:34;;;;;;;29.10;18.88;;;;;;;5.54;73.52;96970.63;5124874;28;20087;-80
2022/12/02 00:24:31;;;;;;;30.60;18.33;;;;;;;5.54;73.57;96968.84;5124907;28;20055;-80
2022/12/02 00:30:50;;;;;;;29.63;19.60;;;;;;;5.51;74.27;96970.88;5114772;28;20048;-80
2022/12/02 00:37:31;;;;;;;31.63;20.55;;;;;;;5.50;73.73;96954.53;5120544;28;20043;-81
2022/12/02 00:40:19;;;;;;;31.98;21.00;;;;;;;5.49;73.65;96952.94;5123508;28;20048;-80
2022/12/02 00:46:44;;;;;;;34.40;20.83;;;;;;;5.47;73.99;96954.84;5124963;28;20473;-79
2022/12/02 00:50:01;;;;;;;29.67;18.88;;;;;;;5.48;73.92;96950.47;5122989;28;20071;-80
2022/12/02 00:53:02;;;;;;;29.75;19.33;;;;;;;5.50;74.15;96946.78;5123825;28;20056;-80
2022/12/02 01:08:56;;;;;;;29.42;19.38;;;;;;;5.56;74.21;96943.63;5120731;28;20549;-80
2022/12/02 01:11:57;;;;;;;32.15;19.48;;;;;;;5.56;73.91;96942.81;5124942;28;20058;-80
2022/12/02 01:15:06;;;;;;;32.20;20.83;;;;;;;5.56;74.40;96943.63;5123742;28;20052;-79
2022/12/02 01:21:02;;;;;;;31.08;19.55;;;;;;;5.54;73.86;96935.19;5128242;28;20071;-80
2022/12/02 01:27:23;;;;;;;32.88;20.85;;;;;;;5.56;73.64;96942.81;5073458;28;20039;-80
2022/12/02 01:31:00;;;;;;;30.85;19.95;;;;;;;5.60;74.64;96943.34;5045244;28;20065;-80
2022/12/02 01:34:10;;;;;;;31.75;19.13;;;;;;;5.62;73.77;96944.84;5113745;28;20085;-80
2022/12/02 01:37:39;;;;;;;32.22;20.27;;;;;;;5.59;73.48;96942.53;5128703;28;20044;-80
2022/12/02 01:47:39;;;;;;;35.63;21.45;;;;;;;5.51;73.89;96937.22;5044210;28;20046;-80
2022/12/02 01:53:50;;;;;;;32.33;20.65;;;;;;;5.45;73.94;96935.25;5036844;28;20045;-80
2022/12/02 01:57:39;;;;;;;36.22;22.35;;;;;;;5.43;74.10;96929.38;5033957;28;20050;-80
2022/12/02 02:00:47;;;;;;;33.25;20.77;;;;;;;5.43;73.92;96931.97;5043351;28;20061;-80
2022/12/02 02:07:19;;;;;;;34.22;21.52;;;;;;;5.43;74.22;96921.63;5047898;28;20055;-80
2022/12/02 02:10:37;;;;;;;33.40;20.60;;;;;;;5.47;74.01;96918.63;5044306;28;20122;-80
2022/12/02 02:13:35;;;;;;;;;;;;;;;;;;;;;
2022/12/02 02:16:47;;;;;;;35.08;21.70;;;;;;;5.43;73.84;96914.69;5120084;28;20048;-80
2022/12/02 02:19:59;;;;;;;38.30;22.35;;;;;;;5.43;73.96;96911.28;5124971;28;20107;-80
2022/12/02 02:26:53;;;;;;;35.97;22.70;;;;;;;5.45;74.08;96910.19;5121015;28;20071;-80
2022/12/02 02:40:17;;;;;;;;;;;;;;;;;;;;;
2022/12/02 02:43:41;;;;;;;35.45;21.77;;;;;;;5.47;73.98;96892.75;5110578;28;20051;-81
2022/12/02 02:50:16;;;;;;;35.67;22.00;;;;;;;5.51;74.34;96888.06;5127014;28;20062;-80
2022/12/02 02:56:48;;;;;;;35.22;21.33;;;;;;;5.50;75.14;96886.47;5123822;28;20074;-80
2022/12/02 03:03:25;;;;;;;34.92;21.17;;;;;;;5.50;74.27;96887.25;5132596;28;20489;-80
2022/12/02 03:13:05;;;;;;;34.90;20.73;;;;;;;5.53;74.02;96875.81;5056786;28;20060;-80
2022/12/02 03:16:01;;;;;;;33.55;20.85;;;;;;;5.53;74.14;96870.63;5064336;28;20052;-80
2022/12/02 03:22:18;;;;;;;36.65;22.92;;;;;;;5.49;73.92;96869.31;5053225;28;20052;-80
2022/12/02 03:29:11;;;;;;;32.33;21.07;;;;;;;5.42;74.41;96858.69;5057113;28;20056;-80
2022/12/02 03:35:51;;;;;;;33.38;20.48;;;;;;;5.41;74.89;96872.59;5040746;28;20562;-80
2022/12/02 03:42:19;;;;;;;36.47;21.50;;;;;;;5.44;74.66;96872.31;5047196;28;20049;-80
2022/12/02 03:56:35;;;;;;;40.92;22.70;;;;;;;5.42;75.20;96850.13;4952394;28;20046;-81
2022/12/02 04:00:04;;;;;;;;;;;;;;;;;;;;;
2022/12/02 04:06:54;;;;;;;35.47;20.35;;;;;;;5.42;75.22;96855.31;4982783;28;20102;-80
2022/12/02 04:09:57;;;;;;;36.40;22.45;;;;;;;5.43;74.99;96844.00;4984328;28;20126;-80
2022/12/02 04:13:16;;;;;;;35.63;21.67;;;;;;;5.40;75.02;96844.28;5017480;28;20519;-80
2022/12/02 04:20:04;;;;;;;36.88;20.08;;;;;;;5.35;75.54;96842.94;4988406;28;20409;-80
2022/12/02 04:23:21;;;;;;;34.08;20.35;;;;;;;5.31;75.85;96839.03;5025067;28;20050;-80
2022/12/02 04:30:16;;;;;;;38.78;19.90;;;;;;;5.29;75.98;96843.53;5124889;28;20123;-80
2022/12/02 04:33:02;;;;;;;37.25;20.63;;;;;;;5.28;75.56;96841.88;5124813;28;20044;-80
2022/12/02 04:39:41;;;;;;;39.85;20.52;;;;;;;5.30;76.18;96837.38;5041250;28;20049;-80
2022/12/02 04:47:10;;;;;;;;;;;;;;;;;;;;;
2022/12/02 04:50:31;;;;;;;37.95;19.33;;;;;;;5.31;76.01;96838.19;5062864;28;20051;-80
2022/12/02 04:57:39;;;;;;;30.52;17.80;;;;;;;5.28;75.73;96831.53;5114957;28;20055;-80
2022/12/02 05:00:48;;;;;;;;;;;;;;;;;;;;;
2022/12/02 05:03:52;;;;;;;31.05;17.83;;;;;;;5.29;75.32;96830.59;5125006;28;20054;-80
2022/12/02 05:06:47;;;;;;;29.90;17.58;;;;;;;5.28;75.19;96825.56;5105899;28;20116;-79
2022/12/02 05:10:13;;;;;;;30.17;17.38;;;;;;;5.26;75.69;96827.47;5110240;28;20046;-80
2022/12/02 05:13:48;;;;;;;;;;;;;;;;;;;;;
2022/12/02 05:23:29;;;;;;;24.08;13.70;;;;;;;5.33;75.62;96818.16;5126210;28;20051;-80
2022/12/02 05:30:28;;;;;;;;;;;;;;;;;;;;;
2022/12/02 05:36:45;;;;;;;15.98;10.18;;;;;;;5.34;73.79;96823.22;5111936;28;20052;-80
2022/12/02 05:39:14;;;;;;;19.10;12.20;;;;;;;5.31;73.71;96818.34;5104198;28;20048;-81
2022/12/02 05:41:43;;;;;;;19.38;11.82;;;;;;;5.29;73.51;96825.44;5116140;28;20039;-80
2022/12/02 05:44:20;;;;;;;25.48;15.38;;;;;;;5.31;74.58;96820.94;5115950;28;20079;-80
2022/12/02 05:46:48;;;;;;;31.88;18.52;;;;;;;5.34;74.78;96820.63;5123653;28;20051;-80
2022/12/02 05:49:20;;;;;;;33.42;19.38;;;;;;;5.36;74.18;96816.13;5126471;28;20426;-80
2022/12/02 05:51:54;;;;;;;29.13;18.27;;;;;;;5.39;74.58;96817.59;5133986;28;20043;-80
2022/12/02 05:54:24;;;;;;;30.02;18.50;;;;;;;5.41;74.22;96820.06;5133774;28;20068;-80
2022/12/02 05:56:53;;;;;;;28.83;17.45;;;;;;;5.42;74.49;96821.66;5112696;28;20051;-80
2022/12/02 05:59:21;;;;;;;26.67;17.10;;;;;;;5.43;74.01;96824.13;5092705;28;20052;-80
2022/12/02 06:01:51;;;;;;;24.02;15.52;;;;;;;5.43;74.08;96823.31;5102880;28;20055;-80
2022/12/02 06:04:23;;;;;;;24.15;15.05;;;;;;;5.44;73.91;96828.31;5113712;28;20058;-80
2022/12/02 06:06:52;;;;;;;49.83;27.48;;;;;;;5.42;74.07;96827.66;5117803;28;20047;-79
2022/12/02 06:09:22;;;;;;;41.03;23.55;;;;;;;5.40;74.18;96818.41;5116548;28;20128;-78
2022/12/02 06:11:50;;;;;;;23.85;15.93;;;;;;;5.38;73.96;96821.16;5118693;28;20052;-80
2022/12/02 06:14:20;;;;;;;24.40;15.07;;;;;;;5.35;74.13;96827.41;5134301;22;20027;-79
2022/12/02 06:16:53;;;;;;;23.58;14.65;;;;;;;5.34;74.67;96828.38;5095732;28;20052;-77
2022/12/02 06:19:28;;;;;;;20.90;13.25;;;;;;;5.36;74.76;96826.47;5096205;28;20048;-78
2022/12/02 06:22:02;;;;;;;22.35;13.98;;;;;;;5.39;74.28;96821.97;5093149;28;20045;-77
2022/12/02 06:24:33;;;;;;;20.40;13.80;;;;;;;5.41;74.45;96827.81;5094775;28;20052;-77
2022/12/02 06:27:02;;;;;;;21.02;12.88;;;;;;;5.40;73.50;96824.44;5094740;28;20055;-77
2022/12/02 06:29:32;;;;;;;19.15;13.35;;;;;;;5.38;73.38;96826.34;5094576;28;20522;-77
2022/12/02 06:32:00;;;;;;;20.20;13.50;;;;;;;5.32;73.68;96827.72;5094769;28;20433;-77
2022/12/02 06:34:36;;;;;;;24.88;15.82;;;;;;;5.31;73.90;96820.94;5094629;28;20135;-77
2022/12/02 06:37:13;;;;;;;24.70;14.35;;;;;;;5.29;73.54;96822.84;5094751;28;20134;-77
2022/12/02 06:39:40;;;;;;;23.90;14.18;;;;;;;5.27;73.49;96817.00;5094726;28;20055;-77
2022/12/02 06:42:32;;;;;;;18.45;12.80;;;;;;;5.30;73.78;96815.88;5095427;28;20060;-77
2022/12/02 06:45:07;;;;;;;20.33;13.48;;;;;;;5.31;73.98;96815.75;5095184;28;20056;-77
2022/12/02 06:48:03;;;;;;;23.75;14.35;;;;;;;5.36;74.41;96813.53;5094823;28;20489;-77
2022/12/02 06:50:35;;;;;;;23.00;14.52;;;;;;;5.37;74.18;96816.94;5111401;28;20044;-77
2022/12/02 06:53:25;;;;;;;25.50;15.40;;;;;;;5.38;74.85;96813.41;5106388;28;20066;-77
2022/12/02 06:55:58;;;;;;;24.77;14.85;;;;;;;5.36;73.78;96817.91;5095645;28;20044;-77
2022/12/02 06:58:34;;;;;;;23.08;15.10;;;;;;;5.36;74.31;96813.53;5094865;28;20044;-77
2022/12/02 07:01:14;;;;;;;19.02;12.85;;;;;;;5.36;73.45;96812.72;5095086;28;20052;-77
2022/12/02 07:03:47;;;;;;;22.20;14.57;;;;;;;5.35;73.46;96808.50;5095007;28;20106;-77
2022/12/02 07:06:19;;;;;;;19.65;11.77;;;;;;;5.28;73.02;96816.03;5094650;28;20044;-77
2022/12/02 07:08:47;;;;;;;20.45;13.57;;;;;;;5.23;73.51;96818.22;5094425;28;20048;-77
2022/12/02 07:11:20;;;;;;;20.35;13.90;;;;;;;5.17;73.57;96818.78;5094947;28;20052;-77
2022/12/02 07:13:49;;;;;;;20.75;13.75;;;;;;;5.14;74.20;96809.56;5094855;28;20043;-77
2022/12/02 07:16:31;;;;;;;17.92;12.07;;;;;;;5.19;74.82;96818.66;5094436;28;20056;-77
2022/12/02 07:18:59;;;;;;;19.05;12.93;;;;;;;5.19;74.60;96818.66;5094612;28;20044;-77
2022/12/02 07:21:29;;;;;;;17.95;11.48;;;;;;;5.14;74.65;96809.56;5094659;28;20047;-77
2022/12/02 07:23:56;;;;;;;17.20;11.15;;;;;;;5.16;74.96;96820.56;5094893;28;20051;-77
2022/12/02 07:26:24;;;;;;;16.17;10.95;;;;;;;5.23;74.98;96812.25;5094518;28;20055;-77
2022/12/02 07:28:58;;;;;;;20.40;12.43;;;;;;;5.22;74.58;96813.19;5093999;28;20044;-77
2022/12/02 07:31:43;;;;;;;17.77;11.52;;;;;;;5.21;75.28;96809.81;5094717;28;20048;-77
2022/12/02 07:34:12;;;;;;;16.67;10.73;;;;;;;5.25;75.78;96821.50;5094350;28;20425;-77
2022/12/02 07:36:41;;;;;;;15.75;10.30;;;;;;;5.26;75.32;96815.34;5094339;28;20131;-77
2022/12/02 07:39:08;;;;;;;16.13;11.43;;;;;;;5.24;75.12;96809.50;5093890;28;20071;-77
2022/12/02 07:41:36;;;;;;;15.20;10.60;;;;;;;5.25;75.79;96818.91;5093967;28;20048;-77
2022/12/02 07:44:05;;;;;;;15.07;10.55;;;;;;;5.25;74.86;96811.16;5094536;28;20074;-77
2022/12/02 07:46:32;;;;;;;14.88;10.23;;;;;;;5.27;75.30;96811.81;5094771;28;20044;-77
2022/12/02 07:49:00;;;;;;;16.75;10.38;;;;;;;5.31;75.49;96805.41;5093654;28;20052;-77
2022/12/02 07:51:28;;;;;;;15.70;10.93;;;;;;;5.34;75.95;96804.31;5093618;28;20138;-77
2022/12/02 07:53:57;;;;;;;15.95;11.15;;;;;;;5.34;76.35;96802.53;5094061;28;20078;-77
2022/12/02 07:56:24;;;;;;;15.82;10.52;;;;;;;5.36;75.83;96800.59;5093684;28;20052;-77
2022/12/02 07:58:52;;;;;;;14.05;9.95;;;;;;;5.39;76.27;96807.25;5093740;28;20094;-77
2022/12/02 08:01:39;;;;;;;14.38;9.93;;;;;;;5.40;75.94;96808.06;5093544;28;20177;-77
2022/12/02 08:04:07;;;;;;;16.75;9.98;;;;;;;5.40;75.62;96811.50;5093360;28;20051;-77
2022/12/02 08:06:35;;;;;;;16.27;10.68;;;;;;;5.39;75.46;96801.28;5093288;28;20463;-77
2022/12/02 08:09:08;;;;;;;15.45;11.00;;;;;;;5.36;75.21;96803.19;5093593;28;20048;-77
2022/12/02 08:11:36;;;;;;;17.63;12.07;;;;;;;5.32;74.56;96801.03;5093616;28;20066;-77
2022/12/02 08:14:05;;;;;;;18.13;11.10;;;;;;;5.29;75.57;96806.47;5093345;28;20139;-77
2022/12/02 08:16:33;;;;;;;17.65;11.27;;;;;;;5.27;75.00;96804.06;5093838;28;20047;-77
2022/12/02 08:19:00;;;;;;;17.27;11.20;;;;;;;5.25;74.82;96805.97;5092909;28;20080;-77
2022/12/02 08:21:29;;;;;;;17.67;11.60;;;;;;;5.26;75.13;96806.78;5093420;28;20421;-77
2022/12/02 08:23:57;;;;;;;14.60;9.88;;;;;;;5.24;75.35;96811.28;5093372;28;20055;-77
2022/12/02 08:26:26;;;;;;;13.55;9.57;;;;;;;5.24;76.09;96804.31;5093004;28;20538;-77
2022/12/02 08:28:54;;;;;;;15.00;9.63;;;;;;;5.24;76.00;96811.28;5092688;28;20055;-77
2022/12/02 08:31:22;;;;;;;15.85;11.25;;;;;;;5.18;75.25;96807.47;5093366;28;20052;-77
2022/12/02 08:33:49;;;;;;;15.23;10.38;;;;;;;5.16;75.94;96810.22;5092952;28;20048;-77
2022/12/02 08:36:17;;;;;;;14.38;9.60;;;;;;;5.20;76.57;96813.31;5093234;28;20047;-77
2022/12/02 08:38:45;;;;;;;17.27;11.15;;;;;;;5.23;76.54;96807.88;5093144;28;20048;-77
2022/12/02 08:41:13;;;;;;;16.73;10.68;;;;;;;5.22;76.57;96806.25;5092985;28;20048;-77
2022/12/02 08:43:42;;;;;;;17.23;11.30;;;;;;;5.19;76.04;96801.38;5093049;28;20131;-77
2022/12/02 08:46:10;;;;;;;15.57;11.25;;;;;;;5.16;76.02;96802.47;5092876;28;20047;-77
2022/12/02 08:48:38;;;;;;;15.93;10.23;;;;;;;5.18;76.57;96801.50;5092772;28;20705;-77
2022/12/02 08:51:06;;;;;;;15.98;10.23;;;;;;;5.20;76.81;96802.16;5092866;28;20050;-77
2022/12/02 08:53:33;;;;;;;14.57;9.95;;;;;;;5.24;76.49;96806.91;5092595;28;20513;-77
2022/12/02 08:56:01;;;;;;;15.73;10.35;;;;;;;5.24;77.12;96799.16;5092657;28;20051;-77
2022/12/02 08:58:29;;;;;;;16.15;11.05;;;;;;;5.22;77.09;96806.25;5092239;28;20430;-77
2022/12/02 09:00:57;;;;;;;16.77;10.88;;;;;;;5.19;76.87;96796.19;5092726;28;20051;-77
2022/12/02 09:03:25;;;;;;;17.15;10.02;;;;;;;5.22;76.89;96800.25;5092824;28;20402;-77
2022/12/02 09:05:52;;;;;;;18.48;11.45;;;;;;;5.26;76.51;96801.59;5092473;28;20048;-77
2022/12/02 09:08:20;;;;;;;15.30;10.57;;;;;;;5.26;75.93;96794.66;5092428;28;20054;-77
2022/12/02 09:10:48;;;;;;;13.90;9.07;;;;;;;5.27;76.46;96798.88;5092776;28;20055;-77
2022/12/02 09:13:15;;;;;;;15.68;10.05;;;;;;;5.27;76.40;96804.06;5092477;28;20051;-77
2022/12/02 09:15:43;;;;;;;19.50;10.70;;;;;;;5.31;76.19;96809.75;5092446;28;20044;-77
2022/12/02 09:18:12;;;;;;;18.58;9.93;;;;;;;5.33;76.30;96797.47;5092406;28;20051;-77
2022/12/02 09:20:41;;;;;;;18.73;11.05;;;;;;;5.34;76.04;96804.31;5092185;28;20055;-77
2022/12/02 09:23:09;;;;;;;16.98;10.77;;;;;;;5.33;76.58;96802.66;5092793;28;20048;-77
2022/12/02 09:25:37;;;;;;;16.48;10.13;;;;;;;5.36;76.38;96798.03;5092158;28;20044;-77
2022/12/02 09:28:05;;;;;;;18.58;11.35;;;;;;;5.39;76.13;96796.91;5092171;28;20052;-77
2022/12/02 09:30:32;;;;;;;15.93;10.90;;;;;;;5.40;75.77;96800.31;5092446;28;20131;-77
2022/12/02 09:33:00;;;;;;;18.70;11.23;;;;;;;5.36;76.23;96795.44;5104214;28;20052;-77
2022/12/02 09:35:29;;;;;;;15.15;10.23;;;;;;;5.36;77.03;96798.03;5108287;28;20074;-77
2022/12/02 09:37:56;;;;;;;16.08;10.35;;;;;;;5.41;77.05;96789.00;5094299;28;20143;-77
2022/12/02 09:40:24;;;;;;;16.38;11.00;;;;;;;5.44;76.47;96793.88;5095795;28;20048;-77
2022/12/02 09:42:52;;;;;;;16.65;12.02;;;;;;;5.47;77.36;96788.44;5096804;28;20066;-77
2022/12/02 09:45:19;;;;;;;17.08;10.95;;;;;;;5.48;77.25;96782.28;5096395;28;20052;-77
2022/12/02 09:47:47;;;;;;;16.45;10.63;;;;;;;5.50;77.23;96782.97;5096028;28;20504;-77
2022/12/02 09:50:16;;;;;;;19.17;11.18;;;;;;;5.52;77.20;96783.63;5096275;28;20040;-77
2022/12/02 09:52:45;;;;;;;22.75;14.27;;;;;;;5.53;77.38;96785.25;5095972;28;20048;-77
2022/12/02 09:55:15;;;;;;;27.55;17.05;;;;;;;5.53;77.15;96780.91;5096254;28;20047;-77
2022/12/02 09:57:43;;;;;;;28.25;16.92;;;;;;;5.53;77.32;96778.31;5096072;28;20052;-77
2022/12/02 10:00:16;;;;;;;27.08;17.05;;;;;;;5.54;77.73;96776.53;5096191;28;20417;-77
2022/12/02 10:02:46;;;;;;;28.95;17.65;;;;;;;5.53;77.09;96772.31;5096132;28;20063;-77
2022/12/02 10:05:17;;;;;;;31.85;19.50;;;;;;;5.50;76.97;96772.63;5095735;28;20139;-77
2022/12/02 10:07:47;;;;;;;35.05;19.10;;;;;;;5.46;76.73;96771.28;5095817;28;20052;-78
2022/12/02 10:10:18;;;;;;;34.58;18.95;;;;;;;5.43;76.62;96776.75;5096102;28;20044;-77
2022/12/02 10:12:46;;;;;;;31.10;17.83;;;;;;;5.41;77.46;96773.50;5096194;28;20056;-78
2022/12/02 10:15:16;;;;;;;29.05;17.75;;;;;;;5.36;76.83;96766.97;5095339;28;20121;-77
2022/12/02 10:17:45;;;;;;;25.77;15.63;;;;;;;5.35;76.18;96775.69;5095490;28;20482;-77
2022/12/02 10:20:18;;;;;;;30.63;15.80;;;;;;;5.32;76.01;96770.00;5095610;28;20062;-77
2022/12/02 10:23:09;;;;;;;28.88;15.30;;;;;;;5.27;75.96;96762.69;5095775;28;20122;-77
2022/12/02 10:25:38;;;;;;;26.98;16.70;;;;;;;5.24;76.52;96757.78;5095843;28;20062;-77
2022/12/02 10:28:17;;;;;;;24.30;15.13;;;;;;;5.28;77.13;96755.72;5095105;28;20157;-77
2022/12/02 10:30:49;;;;;;;20.58;12.65;;;;;;;5.34;77.19;96749.97;5095699;28;20050;-77
2022/12/02 10:33:17;;;;;;;23.48;14.32;;;;;;;5.41;77.58;96757.97;5095784;28;20048;-77
2022/12/02 10:35:47;;;;;;;24.13;13.30;;;;;;;5.43;77.49;96751.69;5095402;28;20040;-77
2022/12/02 10:38:37;;;;;;;18.60;11.75;;;;;;;5.47;77.22;96749.63;5094914;28;20070;-77
2022/12/02 10:41:21;;;;;;;21.23;12.20;;;;;;;5.49;78.03;96735.59;5094923;28;20048;-77
2022/12/02 10:44:05;;;;;;;17.98;11.05;;;;;;;5.53;78.16;96742.09;5099881;28;20474;-77
2022/12/02 10:46:34;;;;;;;19.20;11.63;;;;;;;5.54;77.36;96753.25;5099481;28;20056;-77
2022/12/02 10:49:28;;;;;;;14.95;9.82;;;;;;;5.52;77.67;96739.66;5098468;28;20059;-77
2022/12/02 10:52:00;;;;;;;14.98;10.30;;;;;;;5.53;77.29;96741.25;5095773;28;20044;-77
2022/12/02 10:54:32;;;;;;;16.70;10.38;;;;;;;5.56;77.44;96741.78;5096128;28;20048;-77
2022/12/02 10:57:13;;;;;;;19.77;11.90;;;;;;;5.53;76.72;96736.91;5095524;28;20494;-77
2022/12/02 10:59:41;;;;;;;16.60;10.95;;;;;;;5.52;76.52;96731.88;5095173;28;20498;-77
2022/12/02 11:02:19;;;;;;;18.40;11.25;;;;;;;5.48;76.09;96728.75;5095661;28;20047;-77
2022/12/02 11:04:47;;;;;;;19.35;11.10;;;;;;;5.44;75.96;96726.63;5095428;28;20056;-77
2022/12/02 11:07:16;;;;;;;17.77;11.20;;;;;;;5.40;75.26;96733.88;5095264;28;20048;-77
2022/12/02 11:09:50;;;;;;;16.98;10.45;;;;;;;5.39;74.94;96724.47;5094907;28;20093;-77
2022/12/02 11:12:32;;;;;;;18.88;11.38;;;;;;;5.39;74.74;96723.66;5095120;28;20569;-77
2022/12/02 11:15:01;;;;;;;18.52;10.98;;;;;;;5.37;74.54;96722.03;5095260;28;20498;-77
2022/12/02 11:17:51;;;;;;;17.15;10.38;;;;;;;5.35;74.08;96718.78;5095046;28;20044;-77
2022/12/02 11:20:31;;;;;;;18.20;9.48;;;;;;;5.35;74.72;96720.56;5088325;28;20094;-77
2022/12/02 11:23:26;;;;;;;16.23;10.88;;;;;;;5.32;74.72;96708.72;5094770;28;20063;-77
2022/12/02 11:26:00;;;;;;;21.27;12.77;;;;;;;5.32;74.75;96708.72;5094615;28;20056;-77
2022/12/02 11:28:44;;;;;;;15.75;10.20;;;;;;;5.30;74.81;96708.06;5093942;28;20497;-77
2022/12/02 11:31:18;;;;;;;13.63;9.02;;;;;;;5.27;75.03;96700.59;5094282;28;20048;-77
2022/12/02 11:34:31;;;;;;;12.32;7.95;;;;;;;5.28;74.78;96702.22;5094117;28;20078;-77
2022/12/02 11:37:40;;;;;;;12.35;7.88;;;;;;;5.31;75.00;96707.13;5094371;28;20140;-77
2022/12/02 11:40:41;;;;;;;10.95;7.95;;;;;;;5.31;74.64;96703.69;5094589;28;20048;-77
2022/12/02 11:43:42;;;;;;;11.82;7.97;;;;;;;5.29;74.31;96698.69;5094133;28;20063;-77
2022/12/02 11:46:10;;;;;;;8.98;6.70;;;;;;;5.32;74.37;96700.97;5094140;28;20055;-77
2022/12/02 11:48:44;;;;;;;9.98;6.85;;;;;;;5.31;74.46;96691.59;5094089;28;20109;-77
2022/12/02 11:51:30;;;;;;;8.23;6.57;;;;;;;5.31;74.00;96691.59;5094159;28;20048;-77
2022/12/02 11:53:58;;;;;;;9.50;7.03;;;;;;;5.35;73.94;96692.91;5094307;28;20052;-77
2022/12/02 11:56:30;;;;;;;10.20;6.93;;;;;;;5.39;74.26;96682.28;5094473;28;20047;-77
2022/12/02 11:58:59;;;;;;;11.55;6.97;;;;;;;5.40;73.67;96682.13;5093796;28;20048;-77
2022/12/02 12:01:26;;;;;;;10.65;7.65;;;;;;;5.41;73.88;96681.16;5093542;28;20044;-77
2022/12/02 12:03:54;;;;;;;10.68;7.10;;;;;;;5.44;73.70;96680.84;5094368;28;20138;-77
2022/12/02 12:06:23;;;;;;;8.57;6.45;;;;;;;5.45;73.65;96676.53;5093933;28;20554;-77
2022/12/02 12:08:53;;;;;;;11.88;7.10;;;;;;;5.47;73.70;96677.19;5094305;28;20048;-77
2022/12/02 12:11:25;;;;;;;10.02;7.07;;;;;;;5.45;73.94;96669.56;5094634;28;20048;-77
2022/12/02 12:14:02;;;;;;;8.02;6.13;;;;;;;5.47;74.46;96675.41;5093539;28;20536;-77
2022/12/02 12:16:32;;;;;;;9.05;6.18;;;;;;;5.49;73.53;96672.69;5147560;22;20044;-81
2022/12/02 12:19:01;;;;;;;9.88;6.47;;;;;;;5.47;73.03;96667.66;5098298;28;20048;-81
2022/12/02 12:21:44;;;;;;;10.73;6.95;;;;;;;5.44;73.64;96667.13;5100376;28;20059;-81
2022/12/02 12:24:28;;;;;;;10.88;6.55;;;;;;;5.43;73.98;96665.50;5097334;28;20047;-81
2022/12/02 12:26:58;;;;;;;9.82;6.70;;;;;;;5.42;74.01;96661.28;5075110;28;20055;-81
2022/12/02 12:29:31;;;;;;;9.80;6.43;;;;;;;5.43;73.98;96662.91;5076932;28;20084;-81
2022/12/02 12:31:59;;;;;;;8.85;6.32;;;;;;;5.44;73.74;96664.53;5077036;28;20048;-81
2022/12/02 12:34:30;;;;;;;10.02;6.55;;;;;;;5.45;73.61;96671.34;5076915;28;20052;-81
2022/12/02 12:36:59;;;;;;;9.50;6.60;;;;;;;5.45;73.42;96666.19;5077019;28;20136;-81
2022/12/02 12:39:28;;;;;;;8.75;6.25;;;;;;;5.45;73.51;96666.97;5077359;28;20087;-81
2022/12/02 12:41:57;;;;;;;10.25;6.43;;;;;;;5.40;73.68;96665.78;5077015;28;20476;-81
2022/12/02 12:44:29;;;;;;;9.52;6.57;;;;;;;5.39;73.48;96662.38;5076522;28;20052;-81
2022/12/02 12:47:01;;;;;;;9.95;6.63;;;;;;;5.41;73.69;96659.66;5077080;28;20052;-81
2022/12/02 12:49:31;;;;;;;9.43;6.93;;;;;;;5.41;73.87;96657.09;5076980;28;20403;-80
2022/12/02 12:52:00;;;;;;;9.40;5.85;;;;;;;5.44;73.76;96656.78;5077066;28;20075;-81
2022/12/02 12:54:29;;;;;;;10.15;6.30;;;;;;;5.46;73.71;96658.25;5077032;28;20051;-81
2022/12/02 12:56:58;;;;;;;11.38;7.03;;;;;;;5.46;73.79;96658.25;5077488;28;20051;-81
2022/12/02 12:59:29;;;;;;;9.93;6.07;;;;;;;5.47;73.39;96657.28;5076665;28;20076;-81
2022/12/02 13:01:58;;;;;;;10.20;5.85;;;;;;;5.46;73.33;96652.25;5076724;28;20044;-81
2022/12/02 13:04:26;;;;;;;8.32;5.72;;;;;;;5.47;73.57;96653.91;5076122;28;20056;-81
2022/12/02 13:06:55;;;;;;;8.82;5.57;;;;;;;5.46;73.32;96652.25;5076289;28;20074;-81
2022/12/02 13:09:24;;;;;;;9.77;7.03;;;;;;;5.46;73.38;96654.84;5076805;28;20048;-81
2022/12/02 13:11:53;;;;;;;9.70;5.88;;;;;;;5.46;73.33;96647.91;5077564;28;20482;-81
2022/12/02 13:14:22;;;;;;;8.00;5.43;;;;;;;5.45;73.20;96646.28;5082195;28;20079;-81
2022/12/02 13:16:52;;;;;;;8.63;5.47;;;;;;;5.46;73.14;96650.47;5083693;28;20528;-81
2022/12/02 13:19:23;;;;;;;8.55;5.90;;;;;;;5.47;73.31;96651.31;5083396;28;20422;-81
2022/12/02 13:21:52;;;;;;;9.27;6.68;;;;;;;5.45;72.88;96650.66;5082866;28;20044;-81
2022/12/02 13:24:22;;;;;;;11.88;6.13;;;;;;;5.44;73.27;96649.00;5090138;28;20064;-81
2022/12/02 13:26:51;;;;;;;9.70;6.03;;;;;;;5.43;73.70;96642.22;5085223;28;20068;-81
2022/12/02 13:29:20;;;;;;;8.18;5.50;;;;;;;5.44;73.17;96649.81;5083237;28;20056;-81
2022/12/02 13:31:49;;;;;;;8.88;6.30;;;;;;;5.44;73.71;96647.22;5084213;28;20048;-80
2022/12/02 13:34:21;;;;;;;7.68;5.60;;;;;;;5.45;72.86;96650.66;5083810;28;20094;-81
2022/12/02 13:36:51;;;;;;;10.00;5.97;;;;;;;5.44;73.18;96644.63;5082985;28;20056;-81
2022/12/02 13:39:19;;;;;;;9.75;5.95;;;;;;;5.44;72.92;96647.22;5082964;28;20048;-81
2022/12/02 13:41:48;;;;;;;9.63;5.47;;;;;;;5.43;72.88;96648.19;5084133;28;20048;-81
2022/12/02 13:44:16;;;;;;;8.07;5.72;;;;;;;5.43;73.05;96649.97;5085839;28;20049;-81
2022/12/02 13:46:45;;;;;;;8.57;6.20;;;;;;;5.42;73.22;96646.56;5085889;28;20057;-81
2022/12/02 13:49:14;;;;;;;9.05;6.30;;;;;;;5.43;73.15;96653.38;5089248;28;20041;-81
2022/12/02 13:51:44;;;;;;;10.82;6.43;;;;;;;5.42;73.50;96646.56;5090106;28;20056;-81
2022/12/02 13:54:13;;;;;;;9.70;6.22;;;;;;;5.43;73.49;96647.41;5085778;28;20106;-81
2022/12/02 13:56:42;;;;;;;11.45;6.80;;;;;;;5.42;73.50;96646.56;5084852;28;20048;-80
2022/12/02 13:59:10;;;;;;;10.85;6.97;;;;;;;5.41;73.40;96651.91;5084902;28;20417;-81
2022/12/02 14:01:39;;;;;;;12.27;7.60;;;;;;;5.43;73.41;96647.41;5085174;28;20071;-81
2022/12/02 14:04:08;;;;;;;15.32;8.07;;;;;;;5.44;73.66;96643.84;5083501;28;20052;-81
2022/12/02 14:06:36;;;;;;;12.55;8.65;;;;;;;5.42;74.00;96656.09;5083052;28;20079;-81
2022/12/02 14:09:06;;;;;;;12.10;8.05;;;;;;;5.45;74.54;96653.25;5083260;28;20053;-81
2022/12/02 14:11:35;;;;;;;14.73;8.77;;;;;;;5.47;74.59;96652.13;5083020;28;20072;-81
2022/12/02 14:14:04;;;;;;;15.82;9.43;;;;;;;5.46;74.59;96653.06;5082866;28;20098;-81
2022/12/02 14:16:32;;;;;;;16.25;9.73;;;;;;;5.46;74.55;96655.66;5083220;28;20056;-81
2022/12/02 14:19:01;;;;;;;18.30;10.73;;;;;;;5.46;74.50;96657.44;5083548;28;20052;-81
2022/12/02 14:21:30;;;;;;;17.70;10.48;;;;;;;5.46;74.21;96652.25;5084323;28;20390;-81
2022/12/02 14:24:00;;;;;;;19.42;12.05;;;;;;;5.47;74.38;96659.06;5088027;28;20048;-81
2022/12/02 14:26:34;;;;;;;18.80;11.35;;;;;;;5.51;74.44;96657.78;5087014;28;20048;-81
2022/12/02 14:29:03;;;;;;;19.63;11.57;;;;;;;5.51;74.05;96657.78;5083255;28;20051;-81
2022/12/02 14:31:32;;;;;;;18.80;11.52;;;;;;;5.52;74.50;96656.84;5081412;28;20414;-81
2022/12/02 14:34:00;;;;;;;18.63;12.00;;;;;;;5.55;74.49;96651.38;5080836;28;20399;-81
2022/12/02 14:36:38;;;;;;;18.35;11.63;;;;;;;5.59;75.03;96655.28;5079781;28;20048;-81
2022/12/02 14:39:07;;;;;;;22.10;12.75;;;;;;;5.58;74.38;96654.47;5080238;28;20064;-81
2022/12/02 14:41:39;;;;;;;20.80;13.27;;;;;;;5.57;73.91;96657.22;5080289;28;20178;-81
2022/12/02 14:44:08;;;;;;;20.05;12.32;;;;;;;5.54;74.09;96658.31;5080261;28;20040;-81
2022/12/02 14:46:37;;;;;;;23.67;14.02;;;;;;;5.54;74.39;96657.53;5081646;28;20059;-81
2022/12/02 14:49:06;;;;;;;21.25;12.98;;;;;;;5.53;74.55;96654.13;5082715;28;20062;-81
2022/12/02 14:51:55;;;;;;;17.42;11.07;;;;;;;5.58;74.56;96656.25;5081160;28;20059;-81